sensor_id;sensor_type;location;lat;lon;timestamp;P1;durP1;ratioP1;P2;durP2;ratioP2
52104;SDS011;38103;42.776;23.112;2022-08-02T00:01:32;8.10;;;2.88;;
52104;SDS011;38103;42.776;23.112;2022-08-02T00:03:58;9.77;;;3.00;;
52104;SDS011;38103;42.776;23.112;2022-08-02T00:06:23;11.75;;;2.95;;
52104;SDS011;38103;42.776;23.112;2022-08-02T00:08:49;7.60;;;2.90;;
52104;SDS011;38103;42.776;23.112;2022-08-02T00:11:14;14.93;;;4.90;;
52104;SDS011;38103;42.776;23.112;2022-08-02T00:13:40;14.20;;;3.83;;
52104;SDS011;38103;42.776;23.112;2022-08-02T00:16:05;18.77;;;4.15;;
52104;SDS011;38103;42.776;23.112;2022-08-02T00:18:31;15.38;;;4.97;;
52104;SDS011;38103;42.776;23.112;2022-08-02T00:20:56;11.50;;;3.60;;
52104;SDS011;38103;42.776;23.112;2022-08-02T00:23:22;12.43;;;3.55;;
52104;SDS011;38103;42.776;23.112;2022-08-02T00:25:47;11.27;;;3.33;;
52104;SDS011;38103;42.776;23.112;2022-08-02T00:28:13;8.82;;;3.00;;
52104;SDS011;38103;42.776;23.112;2022-08-02T00:30:38;11.85;;;3.25;;
52104;SDS011;38103;42.776;23.112;2022-08-02T00:33:04;8.45;;;3.22;;
52104;SDS011;38103;42.776;23.112;2022-08-02T00:35:30;8.85;;;3.20;;
52104;SDS011;38103;42.776;23.112;2022-08-02T00:37:56;11.73;;;3.40;;
52104;SDS011;38103;42.776;23.112;2022-08-02T00:40:22;12.60;;;3.78;;
52104;SDS011;38103;42.776;23.112;2022-08-02T00:43:08;11.20;;;3.65;;
52104;SDS011;38103;42.776;23.112;2022-08-02T00:45:36;17.25;;;3.60;;
52104;SDS011;38103;42.776;23.112;2022-08-02T00:48:03;13.60;;;3.80;;
52104;SDS011;38103;42.776;23.112;2022-08-02T00:50:30;14.68;;;3.40;;
52104;SDS011;38103;42.776;23.112;2022-08-02T00:52:56;8.73;;;3.50;;
52104;SDS011;38103;42.776;23.112;2022-08-02T00:55:21;8.93;;;3.40;;
52104;SDS011;38103;42.776;23.112;2022-08-02T00:57:47;9.35;;;3.28;;
52104;SDS011;38103;42.776;23.112;2022-08-02T01:00:13;9.85;;;3.75;;
52104;SDS011;38103;42.776;23.112;2022-08-02T01:02:39;14.43;;;4.57;;
52104;SDS011;38103;42.776;23.112;2022-08-02T01:05:04;9.98;;;3.42;;
52104;SDS011;38103;42.776;23.112;2022-08-02T01:07:30;11.23;;;5.10;;
52104;SDS011;38103;42.776;23.112;2022-08-02T01:09:55;9.27;;;3.30;;
52104;SDS011;38103;42.776;23.112;2022-08-02T01:12:21;10.07;;;3.72;;
52104;SDS011;38103;42.776;23.112;2022-08-02T01:14:47;11.05;;;3.95;;
52104;SDS011;38103;42.776;23.112;2022-08-02T01:17:17;12.00;;;3.92;;
52104;SDS011;38103;42.776;23.112;2022-08-02T01:25:23;9.23;;;3.97;;
52104;SDS011;38103;42.776;23.112;2022-08-02T01:30:47;10.30;;;4.20;;
52104;SDS011;38103;42.776;23.112;2022-08-02T01:33:19;11.45;;;4.53;;
52104;SDS011;38103;42.776;23.112;2022-08-02T01:35:51;10.85;;;4.25;;
52104;SDS011;38103;42.776;23.112;2022-08-02T01:38:23;10.70;;;4.25;;
52104;SDS011;38103;42.776;23.112;2022-08-02T01:40:53;12.68;;;4.45;;
52104;SDS011;38103;42.776;23.112;2022-08-02T01:43:22;10.57;;;3.97;;
52104;SDS011;38103;42.776;23.112;2022-08-02T01:45:50;11.95;;;4.25;;
52104;SDS011;38103;42.776;23.112;2022-08-02T01:48:17;15.25;;;4.80;;
52104;SDS011;38103;42.776;23.112;2022-08-02T01:50:44;12.05;;;4.63;;
52104;SDS011;38103;42.776;23.112;2022-08-02T01:53:12;16.20;;;4.75;;
52104;SDS011;38103;42.776;23.112;2022-08-02T01:55:45;13.07;;;5.07;;
52104;SDS011;38103;42.776;23.112;2022-08-02T01:58:13;15.60;;;4.97;;
52104;SDS011;38103;42.776;23.112;2022-08-02T02:00:42;15.80;;;5.35;;
52104;SDS011;38103;42.776;23.112;2022-08-02T02:03:13;13.52;;;5.70;;
52104;SDS011;38103;42.776;23.112;2022-08-02T02:05:43;15.40;;;5.20;;
52104;SDS011;38103;42.776;23.112;2022-08-02T02:08:12;13.48;;;5.38;;
52104;SDS011;38103;42.776;23.112;2022-08-02T02:10:40;14.68;;;5.38;;
52104;SDS011;38103;42.776;23.112;2022-08-02T02:13:08;13.10;;;5.72;;
52104;SDS011;38103;42.776;23.112;2022-08-02T02:15:39;12.20;;;4.55;;
52104;SDS011;38103;42.776;23.112;2022-08-02T02:18:08;11.25;;;5.03;;
52104;SDS011;38103;42.776;23.112;2022-08-02T02:20:36;11.57;;;5.13;;
52104;SDS011;38103;42.776;23.112;2022-08-02T02:23:02;15.02;;;5.38;;
52104;SDS011;38103;42.776;23.112;2022-08-02T02:25:28;16.30;;;5.18;;
52104;SDS011;38103;42.776;23.112;2022-08-02T02:28:00;14.63;;;5.88;;
52104;SDS011;38103;42.776;23.112;2022-08-02T02:30:30;14.40;;;5.75;;
52104;SDS011;38103;42.776;23.112;2022-08-02T02:33:00;16.60;;;6.05;;
52104;SDS011;38103;42.776;23.112;2022-08-02T02:35:28;13.43;;;5.93;;
52104;SDS011;38103;42.776;23.112;2022-08-02T02:37:56;15.95;;;5.80;;
52104;SDS011;38103;42.776;23.112;2022-08-02T02:40:25;16.05;;;6.28;;
52104;SDS011;38103;42.776;23.112;2022-08-02T02:42:52;16.13;;;6.97;;
52104;SDS011;38103;42.776;23.112;2022-08-02T02:45:20;18.95;;;5.90;;
52104;SDS011;38103;42.776;23.112;2022-08-02T02:47:46;20.08;;;5.93;;
52104;SDS011;38103;42.776;23.112;2022-08-02T02:50:14;20.23;;;6.57;;
52104;SDS011;38103;42.776;23.112;2022-08-02T02:52:40;16.40;;;6.15;;
52104;SDS011;38103;42.776;23.112;2022-08-02T02:55:08;15.07;;;6.30;;
52104;SDS011;38103;42.776;23.112;2022-08-02T02:57:35;21.20;;;6.45;;
52104;SDS011;38103;42.776;23.112;2022-08-02T03:00:02;17.92;;;6.45;;
52104;SDS011;38103;42.776;23.112;2022-08-02T03:02:29;18.00;;;6.53;;
52104;SDS011;38103;42.776;23.112;2022-08-02T03:04:55;15.77;;;5.78;;
52104;SDS011;38103;42.776;23.112;2022-08-02T03:07:22;18.80;;;6.50;;
52104;SDS011;38103;42.776;23.112;2022-08-02T03:09:47;16.35;;;6.35;;
52104;SDS011;38103;42.776;23.112;2022-08-02T03:12:13;16.33;;;6.40;;
52104;SDS011;38103;42.776;23.112;2022-08-02T03:14:41;18.20;;;6.30;;
52104;SDS011;38103;42.776;23.112;2022-08-02T03:17:07;14.95;;;6.20;;
52104;SDS011;38103;42.776;23.112;2022-08-02T03:19:33;18.42;;;5.82;;
52104;SDS011;38103;42.776;23.112;2022-08-02T03:21:58;18.98;;;6.43;;
52104;SDS011;38103;42.776;23.112;2022-08-02T03:24:24;18.10;;;6.78;;
52104;SDS011;38103;42.776;23.112;2022-08-02T03:26:49;14.38;;;5.75;;
52104;SDS011;38103;42.776;23.112;2022-08-02T03:29:14;15.77;;;5.68;;
52104;SDS011;38103;42.776;23.112;2022-08-02T03:31:40;15.27;;;6.20;;
52104;SDS011;38103;42.776;23.112;2022-08-02T03:34:09;16.65;;;6.53;;
52104;SDS011;38103;42.776;23.112;2022-08-02T03:36:35;13.88;;;5.45;;
52104;SDS011;38103;42.776;23.112;2022-08-02T03:39:01;16.23;;;5.40;;
52104;SDS011;38103;42.776;23.112;2022-08-02T03:41:27;22.15;;;5.85;;
52104;SDS011;38103;42.776;23.112;2022-08-02T03:43:53;16.70;;;6.15;;
52104;SDS011;38103;42.776;23.112;2022-08-02T03:46:21;14.15;;;5.32;;
52104;SDS011;38103;42.776;23.112;2022-08-02T03:48:49;14.55;;;5.53;;
52104;SDS011;38103;42.776;23.112;2022-08-02T03:51:16;15.02;;;5.00;;
52104;SDS011;38103;42.776;23.112;2022-08-02T03:53:43;22.40;;;5.70;;
52104;SDS011;38103;42.776;23.112;2022-08-02T03:56:09;14.93;;;5.10;;
52104;SDS011;38103;42.776;23.112;2022-08-02T03:58:34;13.48;;;5.10;;
52104;SDS011;38103;42.776;23.112;2022-08-02T04:01:00;15.93;;;5.47;;
52104;SDS011;38103;42.776;23.112;2022-08-02T04:03:25;13.35;;;5.05;;
52104;SDS011;38103;42.776;23.112;2022-08-02T04:05:51;13.02;;;4.90;;
52104;SDS011;38103;42.776;23.112;2022-08-02T04:08:17;15.77;;;4.90;;
52104;SDS011;38103;42.776;23.112;2022-08-02T04:10:43;11.25;;;4.70;;
52104;SDS011;38103;42.776;23.112;2022-08-02T04:13:27;14.50;;;4.72;;
52104;SDS011;38103;42.776;23.112;2022-08-02T04:15:56;13.68;;;4.20;;
52104;SDS011;38103;42.776;23.112;2022-08-02T04:18:28;13.07;;;4.20;;
52104;SDS011;38103;42.776;23.112;2022-08-02T04:20:58;12.10;;;4.20;;
52104;SDS011;38103;42.776;23.112;2022-08-02T04:23:26;13.65;;;4.28;;
52104;SDS011;38103;42.776;23.112;2022-08-02T04:25:54;12.23;;;4.07;;
52104;SDS011;38103;42.776;23.112;2022-08-02T04:28:21;13.02;;;4.43;;
52104;SDS011;38103;42.776;23.112;2022-08-02T04:30:47;12.70;;;3.88;;
52104;SDS011;38103;42.776;23.112;2022-08-02T04:33:14;12.48;;;4.32;;
52104;SDS011;38103;42.776;23.112;2022-08-02T04:35:40;9.27;;;3.45;;
52104;SDS011;38103;42.776;23.112;2022-08-02T04:38:06;10.40;;;3.80;;
52104;SDS011;38103;42.776;23.112;2022-08-02T04:40:32;10.00;;;4.18;;
52104;SDS011;38103;42.776;23.112;2022-08-02T04:42:57;8.48;;;3.33;;
52104;SDS011;38103;42.776;23.112;2022-08-02T04:45:22;9.25;;;3.50;;
52104;SDS011;38103;42.776;23.112;2022-08-02T04:47:49;12.25;;;3.10;;
52104;SDS011;38103;42.776;23.112;2022-08-02T04:50:15;10.82;;;3.60;;
52104;SDS011;38103;42.776;23.112;2022-08-02T04:52:40;10.25;;;2.90;;
52104;SDS011;38103;42.776;23.112;2022-08-02T04:55:06;10.65;;;3.08;;
52104;SDS011;38103;42.776;23.112;2022-08-02T04:57:31;10.48;;;2.97;;
52104;SDS011;38103;42.776;23.112;2022-08-02T05:00:15;8.00;;;2.97;;
52104;SDS011;38103;42.776;23.112;2022-08-02T05:02:40;8.43;;;2.97;;
52104;SDS011;38103;42.776;23.112;2022-08-02T05:05:06;9.23;;;3.28;;
52104;SDS011;38103;42.776;23.112;2022-08-02T05:07:31;8.57;;;2.85;;
52104;SDS011;38103;42.776;23.112;2022-08-02T05:09:57;7.63;;;2.80;;
52104;SDS011;38103;42.776;23.112;2022-08-02T05:12:22;10.68;;;2.72;;
52104;SDS011;38103;42.776;23.112;2022-08-02T05:14:50;9.05;;;2.92;;
52104;SDS011;38103;42.776;23.112;2022-08-02T05:17:15;9.20;;;2.88;;
52104;SDS011;38103;42.776;23.112;2022-08-02T05:19:40;10.35;;;3.17;;
52104;SDS011;38103;42.776;23.112;2022-08-02T05:22:06;9.15;;;2.95;;
52104;SDS011;38103;42.776;23.112;2022-08-02T05:24:31;9.35;;;2.90;;
52104;SDS011;38103;42.776;23.112;2022-08-02T05:26:56;10.60;;;3.03;;
52104;SDS011;38103;42.776;23.112;2022-08-02T05:29:22;10.07;;;3.03;;
52104;SDS011;38103;42.776;23.112;2022-08-02T05:31:47;10.73;;;3.00;;
52104;SDS011;38103;42.776;23.112;2022-08-02T05:34:13;12.98;;;3.03;;
52104;SDS011;38103;42.776;23.112;2022-08-02T05:36:38;9.90;;;2.80;;
52104;SDS011;38103;42.776;23.112;2022-08-02T05:39:04;7.78;;;2.90;;
52104;SDS011;38103;42.776;23.112;2022-08-02T05:41:29;7.43;;;2.67;;
52104;SDS011;38103;42.776;23.112;2022-08-02T05:43:54;8.27;;;2.95;;
52104;SDS011;38103;42.776;23.112;2022-08-02T05:46:20;7.50;;;2.88;;
52104;SDS011;38103;42.776;23.112;2022-08-02T05:48:45;7.95;;;2.67;;
52104;SDS011;38103;42.776;23.112;2022-08-02T05:51:12;11.20;;;2.60;;
52104;SDS011;38103;42.776;23.112;2022-08-02T05:53:51;7.07;;;2.60;;
52104;SDS011;38103;42.776;23.112;2022-08-02T06:01:33;7.70;;;2.88;;
52104;SDS011;38103;42.776;23.112;2022-08-02T06:04:03;8.07;;;3.10;;
52104;SDS011;38103;42.776;23.112;2022-08-02T06:06:31;9.38;;;2.90;;
52104;SDS011;38103;42.776;23.112;2022-08-02T06:08:58;12.95;;;3.00;;
52104;SDS011;38103;42.776;23.112;2022-08-02T06:11:37;8.98;;;2.90;;
52104;SDS011;38103;42.776;23.112;2022-08-02T06:14:06;7.75;;;2.90;;
52104;SDS011;38103;42.776;23.112;2022-08-02T06:16:32;7.50;;;2.63;;
52104;SDS011;38103;42.776;23.112;2022-08-02T06:18:59;9.95;;;3.28;;
52104;SDS011;38103;42.776;23.112;2022-08-02T06:21:25;7.97;;;2.85;;
52104;SDS011;38103;42.776;23.112;2022-08-02T06:23:51;8.05;;;2.90;;
52104;SDS011;38103;42.776;23.112;2022-08-02T06:26:16;7.95;;;2.53;;
52104;SDS011;38103;42.776;23.112;2022-08-02T06:28:43;8.40;;;3.03;;
52104;SDS011;38103;42.776;23.112;2022-08-02T06:31:10;6.53;;;2.63;;
52104;SDS011;38103;42.776;23.112;2022-08-02T06:33:38;9.77;;;2.60;;
52104;SDS011;38103;42.776;23.112;2022-08-02T06:36:07;7.50;;;2.70;;
52104;SDS011;38103;42.776;23.112;2022-08-02T06:38:39;7.05;;;2.60;;
52104;SDS011;38103;42.776;23.112;2022-08-02T06:41:11;9.27;;;2.90;;
52104;SDS011;38103;42.776;23.112;2022-08-02T06:46:24;9.20;;;2.33;;
52104;SDS011;38103;42.776;23.112;2022-08-02T06:48:49;7.22;;;2.45;;
52104;SDS011;38103;42.776;23.112;2022-08-02T06:51:15;7.95;;;2.58;;
52104;SDS011;38103;42.776;23.112;2022-08-02T06:53:41;9.43;;;2.60;;
52104;SDS011;38103;42.776;23.112;2022-08-02T06:56:06;7.45;;;2.53;;
52104;SDS011;38103;42.776;23.112;2022-08-02T06:58:32;7.68;;;2.85;;
52104;SDS011;38103;42.776;23.112;2022-08-02T07:00:57;7.53;;;2.60;;
52104;SDS011;38103;42.776;23.112;2022-08-02T07:03:23;7.53;;;2.47;;
52104;SDS011;38103;42.776;23.112;2022-08-02T07:05:52;8.32;;;2.58;;
52104;SDS011;38103;42.776;23.112;2022-08-02T07:08:18;7.43;;;2.67;;
52104;SDS011;38103;42.776;23.112;2022-08-02T07:10:44;9.85;;;3.15;;
52104;SDS011;38103;42.776;23.112;2022-08-02T07:13:10;7.35;;;2.65;;
52104;SDS011;38103;42.776;23.112;2022-08-02T07:15:36;6.65;;;2.50;;
52104;SDS011;38103;42.776;23.112;2022-08-02T07:18:04;7.50;;;2.75;;
52104;SDS011;38103;42.776;23.112;2022-08-02T07:20:30;7.00;;;2.60;;
52104;SDS011;38103;42.776;23.112;2022-08-02T07:22:56;7.78;;;2.50;;
52104;SDS011;38103;42.776;23.112;2022-08-02T07:25:21;6.80;;;2.40;;
52104;SDS011;38103;42.776;23.112;2022-08-02T07:27:47;7.95;;;3.00;;
52104;SDS011;38103;42.776;23.112;2022-08-02T07:30:12;10.32;;;2.50;;
52104;SDS011;38103;42.776;23.112;2022-08-02T07:32:38;5.78;;;2.13;;
52104;SDS011;38103;42.776;23.112;2022-08-02T07:35:03;7.25;;;2.40;;
52104;SDS011;38103;42.776;23.112;2022-08-02T07:37:32;5.97;;;2.20;;
52104;SDS011;38103;42.776;23.112;2022-08-02T07:39:59;8.48;;;2.88;;
52104;SDS011;38103;42.776;23.112;2022-08-02T07:42:24;11.73;;;3.20;;
52104;SDS011;38103;42.776;23.112;2022-08-02T07:44:50;7.45;;;2.45;;
52104;SDS011;38103;42.776;23.112;2022-08-02T07:47:16;7.55;;;2.42;;
52104;SDS011;38103;42.776;23.112;2022-08-02T07:49:42;5.68;;;2.25;;
52104;SDS011;38103;42.776;23.112;2022-08-02T07:52:07;5.72;;;2.15;;
52104;SDS011;38103;42.776;23.112;2022-08-02T07:54:32;5.07;;;1.95;;
52104;SDS011;38103;42.776;23.112;2022-08-02T07:56:58;6.78;;;2.30;;
52104;SDS011;38103;42.776;23.112;2022-08-02T07:59:25;6.45;;;2.35;;
52104;SDS011;38103;42.776;23.112;2022-08-02T08:01:51;5.43;;;2.00;;
52104;SDS011;38103;42.776;23.112;2022-08-02T08:04:17;5.03;;;1.98;;
52104;SDS011;38103;42.776;23.112;2022-08-02T08:06:43;4.97;;;2.05;;
52104;SDS011;38103;42.776;23.112;2022-08-02T08:09:09;8.57;;;2.08;;
52104;SDS011;38103;42.776;23.112;2022-08-02T08:11:35;7.05;;;1.88;;
52104;SDS011;38103;42.776;23.112;2022-08-02T08:14:00;7.05;;;2.05;;
52104;SDS011;38103;42.776;23.112;2022-08-02T08:16:26;7.30;;;2.17;;
52104;SDS011;38103;42.776;23.112;2022-08-02T08:18:53;5.63;;;2.00;;
52104;SDS011;38103;42.776;23.112;2022-08-02T08:21:19;4.60;;;1.80;;
52104;SDS011;38103;42.776;23.112;2022-08-02T08:23:44;5.57;;;2.10;;
52104;SDS011;38103;42.776;23.112;2022-08-02T08:26:10;14.88;;;2.13;;
52104;SDS011;38103;42.776;23.112;2022-08-02T08:28:35;5.00;;;1.92;;
52104;SDS011;38103;42.776;23.112;2022-08-02T08:31:01;6.15;;;1.67;;
52104;SDS011;38103;42.776;23.112;2022-08-02T08:33:26;5.82;;;1.90;;
52104;SDS011;38103;42.776;23.112;2022-08-02T08:35:52;6.53;;;1.85;;
52104;SDS011;38103;42.776;23.112;2022-08-02T08:38:17;5.05;;;1.80;;
52104;SDS011;38103;42.776;23.112;2022-08-02T08:40:43;4.55;;;1.95;;
52104;SDS011;38103;42.776;23.112;2022-08-02T08:43:10;6.70;;;1.95;;
52104;SDS011;38103;42.776;23.112;2022-08-02T08:45:37;2.78;;;1.67;;
52104;SDS011;38103;42.776;23.112;2022-08-02T08:48:09;7.05;;;1.88;;
52104;SDS011;38103;42.776;23.112;2022-08-02T08:50:41;4.43;;;1.90;;
52104;SDS011;38103;42.776;23.112;2022-08-02T08:53:13;5.70;;;2.05;;
52104;SDS011;38103;42.776;23.112;2022-08-02T08:55:39;4.22;;;1.80;;
52104;SDS011;38103;42.776;23.112;2022-08-02T08:58:05;4.13;;;1.80;;
52104;SDS011;38103;42.776;23.112;2022-08-02T09:00:32;3.88;;;1.80;;
52104;SDS011;38103;42.776;23.112;2022-08-02T09:03:03;3.92;;;1.73;;
52104;SDS011;38103;42.776;23.112;2022-08-02T09:05:30;5.20;;;1.80;;
52104;SDS011;38103;42.776;23.112;2022-08-02T09:07:58;5.75;;;1.73;;
52104;SDS011;38103;42.776;23.112;2022-08-02T09:10:36;6.20;;;1.85;;
52104;SDS011;38103;42.776;23.112;2022-08-02T09:15:40;8.13;;;1.80;;
52104;SDS011;38103;42.776;23.112;2022-08-02T09:18:07;5.95;;;2.00;;
52104;SDS011;38103;42.776;23.112;2022-08-02T09:20:33;7.50;;;1.90;;
52104;SDS011;38103;42.776;23.112;2022-08-02T09:23:09;3.42;;;1.50;;
52104;SDS011;38103;42.776;23.112;2022-08-02T09:25:36;5.28;;;1.70;;
52104;SDS011;38103;42.776;23.112;2022-08-02T09:28:02;3.30;;;1.65;;
52104;SDS011;38103;42.776;23.112;2022-08-02T09:30:29;3.85;;;1.70;;
52104;SDS011;38103;42.776;23.112;2022-08-02T09:32:54;3.78;;;1.70;;
52104;SDS011;38103;42.776;23.112;2022-08-02T09:35:33;3.95;;;1.80;;
52104;SDS011;38103;42.776;23.112;2022-08-02T09:38:07;4.63;;;1.77;;
52104;SDS011;38103;42.776;23.112;2022-08-02T09:40:36;4.05;;;1.70;;
52104;SDS011;38103;42.776;23.112;2022-08-02T09:43:03;3.85;;;1.63;;
52104;SDS011;38103;42.776;23.112;2022-08-02T09:45:33;4.15;;;1.80;;
52104;SDS011;38103;42.776;23.112;2022-08-02T09:48:05;2.33;;;1.45;;
52104;SDS011;38103;42.776;23.112;2022-08-02T09:50:33;5.63;;;1.73;;
52104;SDS011;38103;42.776;23.112;2022-08-02T09:53:03;4.10;;;1.90;;
52104;SDS011;38103;42.776;23.112;2022-08-02T09:55:29;3.83;;;1.73;;
52104;SDS011;38103;42.776;23.112;2022-08-02T09:57:54;3.63;;;1.70;;
52104;SDS011;38103;42.776;23.112;2022-08-02T10:00:20;17.42;;;2.42;;
52104;SDS011;38103;42.776;23.112;2022-08-02T10:03:08;3.03;;;1.60;;
52104;SDS011;38103;42.776;23.112;2022-08-02T10:05:52;3.20;;;1.52;;
52104;SDS011;38103;42.776;23.112;2022-08-02T10:08:19;4.85;;;1.85;;
52104;SDS011;38103;42.776;23.112;2022-08-02T10:10:45;3.90;;;1.70;;
52104;SDS011;38103;42.776;23.112;2022-08-02T10:13:11;5.70;;;2.05;;
52104;SDS011;38103;42.776;23.112;2022-08-02T10:15:37;4.35;;;1.80;;
52104;SDS011;38103;42.776;23.112;2022-08-02T10:18:04;3.58;;;1.80;;
52104;SDS011;38103;42.776;23.112;2022-08-02T10:20:30;3.50;;;1.65;;
52104;SDS011;38103;42.776;23.112;2022-08-02T10:22:58;3.50;;;1.70;;
52104;SDS011;38103;42.776;23.112;2022-08-02T10:25:26;4.50;;;1.60;;
52104;SDS011;38103;42.776;23.112;2022-08-02T10:27:52;2.60;;;1.40;;
52104;SDS011;38103;42.776;23.112;2022-08-02T10:30:17;2.95;;;1.60;;
52104;SDS011;38103;42.776;23.112;2022-08-02T10:32:45;3.22;;;1.60;;
52104;SDS011;38103;42.776;23.112;2022-08-02T10:35:15;3.75;;;1.67;;
52104;SDS011;38103;42.776;23.112;2022-08-02T10:37:45;5.40;;;2.00;;
52104;SDS011;38103;42.776;23.112;2022-08-02T10:40:14;4.45;;;1.80;;
52104;SDS011;38103;42.776;23.112;2022-08-02T10:42:53;4.00;;;1.83;;
52104;SDS011;38103;42.776;23.112;2022-08-02T10:45:20;3.92;;;1.75;;
52104;SDS011;38103;42.776;23.112;2022-08-02T10:53:21;5.68;;;2.00;;
52104;SDS011;38103;42.776;23.112;2022-08-02T10:55:52;3.80;;;1.77;;
52104;SDS011;38103;42.776;23.112;2022-08-02T10:58:23;3.42;;;1.70;;
52104;SDS011;38103;42.776;23.112;2022-08-02T11:00:52;3.38;;;1.63;;
52104;SDS011;38103;42.776;23.112;2022-08-02T11:06:02;3.00;;;1.50;;
52104;SDS011;38103;42.776;23.112;2022-08-02T11:08:29;3.97;;;1.70;;
52104;SDS011;38103;42.776;23.112;2022-08-02T11:10:58;4.25;;;1.75;;
52104;SDS011;38103;42.776;23.112;2022-08-02T11:13:25;3.78;;;1.60;;
52104;SDS011;38103;42.776;23.112;2022-08-02T11:15:53;6.90;;;1.60;;
52104;SDS011;38103;42.776;23.112;2022-08-02T11:18:19;2.47;;;1.50;;
52104;SDS011;38103;42.776;23.112;2022-08-02T11:20:46;4.88;;;1.67;;
52104;SDS011;38103;42.776;23.112;2022-08-02T11:26:47;2.72;;;1.55;;
52104;SDS011;38103;42.776;23.112;2022-08-02T11:28:54;3.58;;;1.70;;
52104;SDS011;38103;42.776;23.112;2022-08-02T11:31:20;4.93;;;1.83;;
52104;SDS011;38103;42.776;23.112;2022-08-02T11:33:47;3.45;;;1.70;;
52104;SDS011;38103;42.776;23.112;2022-08-02T11:36:13;5.05;;;1.90;;
52104;SDS011;38103;42.776;23.112;2022-08-02T11:38:40;6.32;;;1.65;;
52104;SDS011;38103;42.776;23.112;2022-08-02T11:41:06;4.82;;;1.75;;
52104;SDS011;38103;42.776;23.112;2022-08-02T11:43:31;2.97;;;1.63;;
52104;SDS011;38103;42.776;23.112;2022-08-02T11:46:00;4.50;;;1.60;;
52104;SDS011;38103;42.776;23.112;2022-08-02T11:48:37;3.92;;;1.70;;
52104;SDS011;38103;42.776;23.112;2022-08-02T11:53:33;4.00;;;1.80;;
52104;SDS011;38103;42.776;23.112;2022-08-02T11:56:06;3.30;;;1.70;;
52104;SDS011;38103;42.776;23.112;2022-08-02T11:58:32;3.58;;;1.60;;
52104;SDS011;38103;42.776;23.112;2022-08-02T12:00:57;4.60;;;1.75;;
52104;SDS011;38103;42.776;23.112;2022-08-02T12:03:23;4.40;;;1.60;;
52104;SDS011;38103;42.776;23.112;2022-08-02T12:05:48;3.60;;;1.70;;
52104;SDS011;38103;42.776;23.112;2022-08-02T12:08:14;3.60;;;1.63;;
52104;SDS011;38103;42.776;23.112;2022-08-02T12:10:45;2.95;;;1.48;;
52104;SDS011;38103;42.776;23.112;2022-08-02T12:13:12;3.20;;;1.70;;
52104;SDS011;38103;42.776;23.112;2022-08-02T12:15:38;3.67;;;1.52;;
52104;SDS011;38103;42.776;23.112;2022-08-02T12:18:09;4.05;;;1.52;;
52104;SDS011;38103;42.776;23.112;2022-08-02T12:20:58;5.45;;;1.75;;
52104;SDS011;38103;42.776;23.112;2022-08-02T12:23:24;4.68;;;1.65;;
52104;SDS011;38103;42.776;23.112;2022-08-02T12:26:02;3.28;;;1.50;;
52104;SDS011;38103;42.776;23.112;2022-08-02T12:28:31;3.92;;;1.70;;
52104;SDS011;38103;42.776;23.112;2022-08-02T12:30:59;4.32;;;1.80;;
52104;SDS011;38103;42.776;23.112;2022-08-02T12:33:28;3.63;;;1.63;;
52104;SDS011;38103;42.776;23.112;2022-08-02T12:36:41;4.60;;;1.75;;
52104;SDS011;38103;42.776;23.112;2022-08-02T12:38:59;5.10;;;1.65;;
52104;SDS011;38103;42.776;23.112;2022-08-02T12:41:26;2.88;;;1.52;;
52104;SDS011;38103;42.776;23.112;2022-08-02T12:43:53;3.35;;;1.60;;
52104;SDS011;38103;42.776;23.112;2022-08-02T12:46:20;3.88;;;1.60;;
52104;SDS011;38103;42.776;23.112;2022-08-02T12:48:47;2.92;;;1.50;;
52104;SDS011;38103;42.776;23.112;2022-08-02T12:51:46;3.72;;;1.80;;
52104;SDS011;38103;42.776;23.112;2022-08-02T12:55:05;3.33;;;1.70;;
52104;SDS011;38103;42.776;23.112;2022-08-02T12:57:11;3.03;;;1.50;;
52104;SDS011;38103;42.776;23.112;2022-08-02T13:02:08;2.55;;;1.50;;
52104;SDS011;38103;42.776;23.112;2022-08-02T13:04:35;2.55;;;1.50;;
52104;SDS011;38103;42.776;23.112;2022-08-02T13:07:01;3.97;;;1.60;;
52104;SDS011;38103;42.776;23.112;2022-08-02T13:09:27;3.97;;;1.80;;
52104;SDS011;38103;42.776;23.112;2022-08-02T13:12:03;3.85;;;1.88;;
52104;SDS011;38103;42.776;23.112;2022-08-02T13:14:30;4.70;;;1.60;;
52104;SDS011;38103;42.776;23.112;2022-08-02T13:16:56;3.47;;;1.60;;
52104;SDS011;38103;42.776;23.112;2022-08-02T13:19:21;3.88;;;1.65;;
52104;SDS011;38103;42.776;23.112;2022-08-02T13:21:47;3.67;;;1.70;;
52104;SDS011;38103;42.776;23.112;2022-08-02T13:24:13;4.28;;;1.60;;
52104;SDS011;38103;42.776;23.112;2022-08-02T13:26:40;2.80;;;1.50;;
52104;SDS011;38103;42.776;23.112;2022-08-02T13:29:07;2.55;;;1.60;;
52104;SDS011;38103;42.776;23.112;2022-08-02T13:31:33;4.15;;;1.73;;
52104;SDS011;38103;42.776;23.112;2022-08-02T13:34:01;3.08;;;1.50;;
52104;SDS011;38103;42.776;23.112;2022-08-02T13:36:31;2.28;;;1.50;;
52104;SDS011;38103;42.776;23.112;2022-08-02T13:38:57;2.67;;;1.50;;
52104;SDS011;38103;42.776;23.112;2022-08-02T13:41:23;3.35;;;1.40;;
52104;SDS011;38103;42.776;23.112;2022-08-02T13:43:48;3.38;;;1.60;;
52104;SDS011;38103;42.776;23.112;2022-08-02T13:46:14;3.35;;;1.50;;
52104;SDS011;38103;42.776;23.112;2022-08-02T13:48:40;3.85;;;1.60;;
52104;SDS011;38103;42.776;23.112;2022-08-02T13:51:05;2.78;;;1.50;;
52104;SDS011;38103;42.776;23.112;2022-08-02T13:53:36;2.92;;;1.50;;
52104;SDS011;38103;42.776;23.112;2022-08-02T13:56:04;4.22;;;1.60;;
52104;SDS011;38103;42.776;23.112;2022-08-02T13:58:30;2.90;;;1.50;;
52104;SDS011;38103;42.776;23.112;2022-08-02T14:00:55;3.22;;;1.70;;
52104;SDS011;38103;42.776;23.112;2022-08-02T14:03:20;2.97;;;1.70;;
52104;SDS011;38103;42.776;23.112;2022-08-02T14:05:46;4.50;;;1.80;;
52104;SDS011;38103;42.776;23.112;2022-08-02T14:08:11;3.72;;;1.50;;
52104;SDS011;38103;42.776;23.112;2022-08-02T14:10:37;4.88;;;1.70;;
52104;SDS011;38103;42.776;23.112;2022-08-02T14:13:03;8.98;;;1.67;;
52104;SDS011;38103;42.776;23.112;2022-08-02T14:15:28;2.80;;;1.50;;
52104;SDS011;38103;42.776;23.112;2022-08-02T14:17:53;2.72;;;1.50;;
52104;SDS011;38103;42.776;23.112;2022-08-02T14:20:19;3.35;;;1.50;;
52104;SDS011;38103;42.776;23.112;2022-08-02T14:22:44;2.88;;;1.60;;
52104;SDS011;38103;42.776;23.112;2022-08-02T14:25:09;4.28;;;1.63;;
52104;SDS011;38103;42.776;23.112;2022-08-02T14:27:35;5.47;;;1.65;;
52104;SDS011;38103;42.776;23.112;2022-08-02T14:30:00;2.45;;;1.50;;
52104;SDS011;38103;42.776;23.112;2022-08-02T14:32:26;2.30;;;1.25;;
52104;SDS011;38103;42.776;23.112;2022-08-02T14:34:52;3.05;;;1.50;;
52104;SDS011;38103;42.776;23.112;2022-08-02T14:37:17;3.72;;;1.50;;
52104;SDS011;38103;42.776;23.112;2022-08-02T14:39:43;2.92;;;1.48;;
52104;SDS011;38103;42.776;23.112;2022-08-02T14:42:08;3.40;;;1.50;;
52104;SDS011;38103;42.776;23.112;2022-08-02T14:44:34;3.05;;;1.50;;
52104;SDS011;38103;42.776;23.112;2022-08-02T14:46:59;3.10;;;1.50;;
52104;SDS011;38103;42.776;23.112;2022-08-02T14:49:25;4.10;;;1.48;;
52104;SDS011;38103;42.776;23.112;2022-08-02T14:51:50;4.32;;;1.60;;
52104;SDS011;38103;42.776;23.112;2022-08-02T14:54:16;3.05;;;1.58;;
52104;SDS011;38103;42.776;23.112;2022-08-02T14:56:41;3.22;;;1.60;;
52104;SDS011;38103;42.776;23.112;2022-08-02T14:59:07;3.88;;;1.65;;
52104;SDS011;38103;42.776;23.112;2022-08-02T15:01:32;4.85;;;1.70;;
52104;SDS011;38103;42.776;23.112;2022-08-02T15:03:58;4.20;;;1.60;;
52104;SDS011;38103;42.776;23.112;2022-08-02T15:06:24;5.55;;;1.60;;
52104;SDS011;38103;42.776;23.112;2022-08-02T15:08:52;4.35;;;1.60;;